createdAt,value
2022-10-31T00:01:36.510Z,7.40
2022-10-31T00:04:05.419Z,7.57
2022-10-31T00:06:33.198Z,6.72
2022-10-31T00:09:04.855Z,7.03
2022-10-31T00:11:32.508Z,7.13
2022-10-31T00:14:00.471Z,7.60
2022-10-31T00:16:30.047Z,7.80
2022-10-31T00:19:02.709Z,7.68
2022-10-31T00:21:31.664Z,7.00
2022-10-31T00:24:00.934Z,8.40
2022-10-31T00:26:31.364Z,8.40
2022-10-31T00:29:00.999Z,7.57
2022-10-31T00:31:28.337Z,9.53
2022-10-31T00:33:55.635Z,8.27
2022-10-31T00:36:22.994Z,6.88
2022-10-31T00:38:50.378Z,7.60
2022-10-31T00:41:19.128Z,7.72
2022-10-31T00:43:46.791Z,8.43
2022-10-31T00:46:14.659Z,7.93
2022-10-31T00:48:42.630Z,8.52
2022-10-31T00:51:11.352Z,8.13
2022-10-31T00:53:38.624Z,7.93
2022-10-31T00:56:07.066Z,7.60
2022-10-31T00:58:34.386Z,6.60
2022-10-31T01:01:01.774Z,7.53
2022-10-31T01:03:35.332Z,7.60
2022-10-31T01:06:08.124Z,6.97
2022-10-31T01:08:37.792Z,7.65
2022-10-31T01:11:22.184Z,7.70
2022-10-31T01:13:55.975Z,8.07
2022-10-31T01:16:28.182Z,7.00
2022-10-31T01:18:55.459Z,7.38
2022-10-31T01:21:28.726Z,6.72
2022-10-31T01:23:58.248Z,7.53
2022-10-31T01:26:33.388Z,7.22
2022-10-31T01:29:08.038Z,7.60
2022-10-31T01:31:40.305Z,7.45
2022-10-31T01:34:15.049Z,7.28
2022-10-31T01:36:42.816Z,7.72
2022-10-31T01:39:15.558Z,8.20
2022-10-31T01:41:50.810Z,7.88
2022-10-31T01:44:18.628Z,7.50
2022-10-31T01:47:20.557Z,7.40
2022-10-31T01:50:00.439Z,7.03
2022-10-31T01:53:03.636Z,8.52
2022-10-31T01:55:38.375Z,8.10
2022-10-31T02:01:08.197Z,7.63
2022-10-31T02:03:35.908Z,7.53
2022-10-31T02:06:08.147Z,7.75
2022-10-31T02:08:38.210Z,8.70
2022-10-31T02:11:06.349Z,7.88
2022-10-31T02:13:35.655Z,8.52
2022-10-31T02:16:02.942Z,7.05
2022-10-31T02:18:31.528Z,7.30
2022-10-31T02:21:31.394Z,7.45
2022-10-31T02:25:57.363Z,7.73
2022-10-31T02:29:20.884Z,6.88
2022-10-31T02:32:22.154Z,7.22
2022-10-31T02:35:48.816Z,7.70
2022-10-31T02:39:03.956Z,7.57
2022-10-31T02:42:39.639Z,7.85
2022-10-31T02:45:36.647Z,7.35
2022-10-31T02:48:19.918Z,8.13
2022-10-31T02:51:01.818Z,8.32
2022-10-31T02:53:35.915Z,9.18
2022-10-31T02:56:15.934Z,10.52
2022-10-31T02:59:01.824Z,10.48
2022-10-31T03:02:19.014Z,10.30
2022-10-31T03:05:25.852Z,11.00
2022-10-31T03:08:36.732Z,10.50
2022-10-31T03:11:09.881Z,7.63
2022-10-31T03:14:16.788Z,7.50
2022-10-31T03:16:56.944Z,6.95
2022-10-31T03:19:46.718Z,8.43
2022-10-31T03:22:29.743Z,7.10
2022-10-31T03:24:58.633Z,6.45
2022-10-31T03:27:31.674Z,6.80
2022-10-31T03:30:06.634Z,7.72
2022-10-31T03:32:49.890Z,8.27
2022-10-31T03:35:23.630Z,6.60
2022-10-31T03:37:54.615Z,7.28
2022-10-31T03:40:26.992Z,7.88
2022-10-31T03:43:04.347Z,7.43
2022-10-31T03:45:33.597Z,7.38
2022-10-31T03:48:01.707Z,7.15
2022-10-31T03:51:07.183Z,8.38
2022-10-31T03:53:48.664Z,6.93
2022-10-31T03:56:41.201Z,7.82
2022-10-31T03:59:22.613Z,7.30
2022-10-31T04:02:00.064Z,6.80
2022-10-31T04:04:29.534Z,7.70
2022-10-31T04:07:00.259Z,6.88
2022-10-31T04:09:32.166Z,7.35
2022-10-31T04:12:03.683Z,6.43
2022-10-31T04:14:34.477Z,7.30
2022-10-31T04:17:07.083Z,8.73
2022-10-31T04:19:35.069Z,7.03
2022-10-31T04:22:02.597Z,8.00
2022-10-31T04:24:31.570Z,7.78
2022-10-31T04:26:59.527Z,8.50
2022-10-31T04:29:26.811Z,7.70
2022-10-31T04:31:54.088Z,8.27
2022-10-31T04:34:22.374Z,8.13
2022-10-31T04:36:49.630Z,7.80
2022-10-31T04:39:20.325Z,8.40
2022-10-31T04:41:51.379Z,7.63
2022-10-31T04:44:19.068Z,8.15
2022-10-31T04:46:46.338Z,8.57
2022-10-31T04:49:13.919Z,8.63
2022-10-31T04:51:41.979Z,9.20
2022-10-31T04:54:09.342Z,7.93
2022-10-31T04:56:36.619Z,8.63
2022-10-31T04:59:04.052Z,9.20
2022-10-31T05:01:31.370Z,8.63
2022-10-31T05:03:58.706Z,8.27
2022-10-31T05:06:26.760Z,8.63
2022-10-31T05:08:54.088Z,7.65
2022-10-31T05:11:21.340Z,7.60
2022-10-31T05:13:48.619Z,8.60
2022-10-31T05:16:15.863Z,8.45
2022-10-31T05:18:43.132Z,8.57
2022-10-31T05:21:10.423Z,8.35
2022-10-31T05:23:37.679Z,9.65
2022-10-31T05:26:05.588Z,9.05
2022-10-31T05:28:32.871Z,9.23
2022-10-31T05:31:00.142Z,8.65
2022-10-31T05:33:27.387Z,9.43
2022-10-31T05:35:55.615Z,9.15
2022-10-31T05:38:22.882Z,8.35
2022-10-31T05:40:50.175Z,8.63
2022-10-31T05:43:17.445Z,8.18
2022-10-31T05:45:44.719Z,8.13
2022-10-31T05:48:12.069Z,8.50
2022-10-31T05:50:39.336Z,8.77
2022-10-31T05:53:07.144Z,8.20
2022-10-31T05:55:34.525Z,9.13
2022-10-31T05:58:02.213Z,8.93
2022-10-31T06:00:30.670Z,9.00
2022-10-31T06:05:57.347Z,9.35
2022-10-31T06:08:24.667Z,9.98
2022-10-31T06:10:54.007Z,9.50
2022-10-31T06:13:21.275Z,9.23
2022-10-31T06:15:48.592Z,8.85
2022-10-31T06:18:15.859Z,8.82
2022-10-31T06:20:43.135Z,8.98
2022-10-31T06:23:10.595Z,9.27
2022-10-31T06:25:37.939Z,9.07
2022-10-31T06:28:05.843Z,7.97
2022-10-31T06:30:34.267Z,9.15
2022-10-31T06:33:07.606Z,8.75
2022-10-31T06:35:34.913Z,9.00
2022-10-31T06:38:03.102Z,9.82
2022-10-31T06:40:30.656Z,9.82
2022-10-31T06:43:02.762Z,10.18
2022-10-31T06:45:30.567Z,9.25
2022-10-31T06:50:45.957Z,10.68
2022-10-31T06:53:15.140Z,9.65
2022-10-31T06:55:43.477Z,9.35
2022-10-31T06:58:12.256Z,10.15
2022-10-31T07:00:39.633Z,8.20
2022-10-31T07:03:13.655Z,9.02
2022-10-31T07:05:41.304Z,9.30
2022-10-31T07:08:13.599Z,9.52
2022-10-31T07:10:43.777Z,9.40
2022-10-31T07:13:15.793Z,9.52
2022-10-31T07:15:45.013Z,8.13
2022-10-31T07:18:13.489Z,7.40
2022-10-31T07:20:40.811Z,7.28
2022-10-31T07:23:11.756Z,7.22
2022-10-31T07:25:40.832Z,7.45
2022-10-31T07:28:12.757Z,6.97
2022-10-31T07:30:40.456Z,6.88
2022-10-31T07:33:07.800Z,6.80
2022-10-31T07:35:35.862Z,6.47
2022-10-31T07:38:13.996Z,6.13
2022-10-31T07:40:43.424Z,5.95
2022-10-31T07:43:14.602Z,6.75
2022-10-31T07:45:42.450Z,6.38
2022-10-31T07:48:09.783Z,5.80
2022-10-31T07:50:37.079Z,7.00
2022-10-31T07:53:13.996Z,6.78
2022-10-31T07:55:42.529Z,6.68
2022-10-31T07:58:17.793Z,6.57
2022-10-31T08:00:48.482Z,6.75
2022-10-31T08:03:20.125Z,6.30
2022-10-31T08:05:48.191Z,6.72
2022-10-31T08:08:16.648Z,7.50
2022-10-31T08:10:44.311Z,7.63
2022-10-31T08:13:14.827Z,7.28
2022-10-31T08:15:43.132Z,7.00
2022-10-31T08:18:15.936Z,7.47
2022-10-31T08:20:46.396Z,6.68
2022-10-31T08:23:14.978Z,6.75
2022-10-31T08:25:44.934Z,6.65
2022-10-31T08:28:12.822Z,6.38
2022-10-31T08:30:41.235Z,5.63
2022-10-31T08:33:20.340Z,6.25
2022-10-31T08:35:48.536Z,5.57
2022-10-31T08:38:16.085Z,5.82
2022-10-31T08:40:43.829Z,5.80
2022-10-31T08:43:18.228Z,5.43
2022-10-31T08:45:50.318Z,5.80
2022-10-31T08:48:18.742Z,6.30
2022-10-31T08:50:47.304Z,5.88
2022-10-31T08:53:20.432Z,5.60
2022-10-31T08:55:48.497Z,6.82
2022-10-31T08:58:21.090Z,6.93
2022-10-31T09:00:55.604Z,6.53
2022-10-31T09:03:28.226Z,7.20
2022-10-31T09:06:06.632Z,6.88
2022-10-31T09:08:34.674Z,7.00
2022-10-31T09:11:03.085Z,7.45
2022-10-31T09:13:30.638Z,7.72
2022-10-31T09:15:59.664Z,6.75
2022-10-31T09:18:28.931Z,7.20
2022-10-31T09:21:00.405Z,7.90
2022-10-31T09:23:28.015Z,7.72
2022-10-31T09:25:56.230Z,7.68
2022-10-31T09:28:26.115Z,6.13
2022-10-31T09:30:55.350Z,6.57
2022-10-31T09:33:23.335Z,6.32
2022-10-31T09:35:50.869Z,6.85
2022-10-31T09:38:22.212Z,7.15
2022-10-31T09:41:19.282Z,6.78
2022-10-31T09:44:22.835Z,5.63
2022-10-31T09:47:36.713Z,7.32
2022-10-31T09:51:01.466Z,6.40
2022-10-31T09:54:02.512Z,6.47
2022-10-31T09:56:32.063Z,6.10
2022-10-31T09:59:03.537Z,6.53
2022-10-31T10:02:35.677Z,5.88
2022-10-31T10:05:14.331Z,6.65
2022-10-31T10:08:15.303Z,6.75
2022-10-31T10:11:19.030Z,6.78
2022-10-31T10:15:01.624Z,5.85
2022-10-31T10:18:06.003Z,7.03
2022-10-31T10:21:26.672Z,6.38
2022-10-31T10:24:33.343Z,6.38
2022-10-31T10:27:55.664Z,6.13
2022-10-31T10:30:47.889Z,5.88
2022-10-31T10:33:36.270Z,6.28
2022-10-31T10:36:41.474Z,5.72
2022-10-31T10:39:29.443Z,6.50
2022-10-31T10:42:18.419Z,5.90
2022-10-31T10:45:09.566Z,6.22
2022-10-31T10:48:03.013Z,5.63
2022-10-31T10:50:45.396Z,5.85
2022-10-31T10:54:09.449Z,5.28
2022-10-31T10:57:24.982Z,5.55
2022-10-31T10:59:53.128Z,5.47
2022-10-31T11:02:31.590Z,4.75
2022-10-31T11:05:03.340Z,5.40
2022-10-31T11:07:41.240Z,5.60
2022-10-31T11:10:16.776Z,4.47
2022-10-31T11:13:22.155Z,4.72
2022-10-31T11:16:05.439Z,5.10
2022-10-31T11:18:46.376Z,4.97
2022-10-31T11:21:34.251Z,5.07
2022-10-31T11:24:28.384Z,6.05
2022-10-31T11:27:22.319Z,5.35
2022-10-31T11:29:54.506Z,5.90
2022-10-31T11:32:28.344Z,5.43
2022-10-31T11:35:09.461Z,5.68
2022-10-31T11:37:43.672Z,5.55
2022-10-31T11:40:26.961Z,5.65
2022-10-31T11:42:59.782Z,4.32
2022-10-31T11:45:34.891Z,6.05
2022-10-31T11:48:15.062Z,5.60
2022-10-31T11:50:48.375Z,5.05
2022-10-31T11:53:25.590Z,5.82
2022-10-31T11:56:20.968Z,4.93
2022-10-31T11:59:32.420Z,4.53
2022-10-31T12:02:02.698Z,5.22
2022-10-31T12:07:13.893Z,4.55
2022-10-31T12:09:42.358Z,4.57
2022-10-31T12:12:15.106Z,4.65
2022-10-31T12:15:28.918Z,5.20
2022-10-31T12:19:05.653Z,5.50
2022-10-31T12:22:35.071Z,4.68
2022-10-31T12:25:39.350Z,4.75
2022-10-31T12:29:13.062Z,4.30
2022-10-31T12:32:06.976Z,4.47
2022-10-31T12:35:05.328Z,4.85
2022-10-31T12:38:07.667Z,4.50
2022-10-31T12:41:20.144Z,4.43
2022-10-31T12:44:26.049Z,4.38
2022-10-31T12:47:28.214Z,4.78
2022-10-31T12:50:56.769Z,4.93
2022-10-31T12:53:53.203Z,4.60
2022-10-31T12:56:41.801Z,4.57
2022-10-31T12:59:47.247Z,4.20
2022-10-31T13:02:45.364Z,4.78
2022-10-31T13:05:44.370Z,4.82
2022-10-31T13:08:25.719Z,4.15
2022-10-31T13:11:17.576Z,4.95
2022-10-31T13:14:27.232Z,4.30
2022-10-31T13:16:57.311Z,4.17
2022-10-31T13:19:37.052Z,4.10
2022-10-31T13:22:32.261Z,4.50
2022-10-31T13:25:29.624Z,5.00
2022-10-31T13:31:43.082Z,5.32
2022-10-31T13:34:31.435Z,5.72
2022-10-31T13:37:26.630Z,5.20
2022-10-31T13:40:33.824Z,5.97
2022-10-31T13:43:57.886Z,5.47
2022-10-31T13:46:32.953Z,5.75
2022-10-31T13:49:00.754Z,4.70
2022-10-31T13:51:36.027Z,4.75
2022-10-31T13:54:35.023Z,4.57
2022-10-31T13:57:02.683Z,4.38
2022-10-31T13:59:33.751Z,5.75
2022-10-31T14:02:14.930Z,4.22
2022-10-31T14:05:09.938Z,4.47
2022-10-31T14:07:46.598Z,3.92
2022-10-31T14:10:47.688Z,4.47
2022-10-31T14:13:46.292Z,4.10
2022-10-31T14:16:32.271Z,3.97
2022-10-31T14:19:14.766Z,4.25
2022-10-31T14:21:49.356Z,3.97
2022-10-31T14:24:25.711Z,4.47
2022-10-31T14:27:27.231Z,4.32
2022-10-31T14:29:54.559Z,4.07
2022-10-31T14:32:27.422Z,3.58
2022-10-31T14:34:58.535Z,4.18
2022-10-31T14:38:09.314Z,4.05
2022-10-31T14:41:33.722Z,3.80
2022-10-31T14:44:27.963Z,3.80
2022-10-31T14:47:47.501Z,3.80
2022-10-31T14:50:43.664Z,4.45
2022-10-31T14:53:33.296Z,3.70
2022-10-31T14:56:06.715Z,4.47
2022-10-31T14:58:47.390Z,4.22
2022-10-31T15:01:30.708Z,4.50
2022-10-31T15:04:24.748Z,3.70
2022-10-31T15:07:25.194Z,4.50
2022-10-31T15:10:07.170Z,4.40
2022-10-31T15:12:39.823Z,4.80
2022-10-31T15:15:24.365Z,4.90
2022-10-31T15:18:04.923Z,4.88
2022-10-31T15:20:48.227Z,4.43
2022-10-31T15:23:30.451Z,4.13
2022-10-31T15:26:06.471Z,4.53
2022-10-31T15:28:33.972Z,4.75
2022-10-31T15:31:04.182Z,4.05
2022-10-31T15:33:47.919Z,4.80
2022-10-31T15:36:29.885Z,4.30
2022-10-31T15:39:00.159Z,4.55
2022-10-31T15:41:56.903Z,4.47
2022-10-31T15:44:37.282Z,4.72
2022-10-31T15:47:25.433Z,5.05
2022-10-31T15:49:59.692Z,4.88
2022-10-31T15:52:48.510Z,4.72
2022-10-31T15:55:31.438Z,4.55
2022-10-31T15:58:11.363Z,4.25
2022-10-31T16:00:39.617Z,3.92
2022-10-31T16:03:32.917Z,4.75
2022-10-31T16:06:05.590Z,4.50
2022-10-31T16:08:37.070Z,5.13
2022-10-31T16:11:13.661Z,3.78
2022-10-31T16:14:25.481Z,5.50
2022-10-31T16:16:58.712Z,5.40
2022-10-31T16:19:34.757Z,5.20
2022-10-31T16:22:37.368Z,5.28
2022-10-31T16:25:37.618Z,5.07
2022-10-31T16:28:24.518Z,5.45
2022-10-31T16:30:57.764Z,4.80
2022-10-31T16:33:37.929Z,5.45
2022-10-31T16:36:39.357Z,5.85
2022-10-31T16:39:08.123Z,6.68
2022-10-31T16:41:47.046Z,5.45
2022-10-31T16:44:26.945Z,5.18
2022-10-31T16:47:17.927Z,5.25
2022-10-31T16:49:50.748Z,5.45
2022-10-31T16:52:19.437Z,5.88
2022-10-31T16:54:46.831Z,6.13
2022-10-31T16:57:21.144Z,5.70
2022-10-31T16:59:54.830Z,6.80
2022-10-31T17:02:22.803Z,6.07
2022-10-31T17:04:53.817Z,5.85
2022-10-31T17:07:24.085Z,7.22
2022-10-31T17:09:51.500Z,5.05
2022-10-31T17:12:27.582Z,6.22
2022-10-31T17:14:55.046Z,6.68
2022-10-31T17:17:22.378Z,5.78
2022-10-31T17:19:49.942Z,5.93
2022-10-31T17:22:17.377Z,6.22
2022-10-31T17:24:44.836Z,6.25
2022-10-31T17:27:12.387Z,5.68
2022-10-31T17:29:39.822Z,5.47
2022-10-31T17:32:07.317Z,5.88
2022-10-31T17:34:34.849Z,6.30
2022-10-31T17:37:02.263Z,6.68
2022-10-31T17:39:29.650Z,5.60
2022-10-31T17:41:57.091Z,5.55
2022-10-31T17:44:24.378Z,6.07
2022-10-31T17:46:51.630Z,6.68
2022-10-31T17:49:19.486Z,6.95
2022-10-31T17:51:46.777Z,6.28
2022-10-31T17:54:18.362Z,6.53
2022-10-31T17:56:45.698Z,6.47
2022-10-31T17:59:12.961Z,5.82
2022-10-31T18:01:40.371Z,6.20
2022-10-31T18:04:07.669Z,6.18
2022-10-31T18:06:34.932Z,5.75
2022-10-31T18:09:06.932Z,5.60
2022-10-31T18:11:34.240Z,5.78
2022-10-31T18:14:01.618Z,7.07
2022-10-31T18:16:29.760Z,7.47
2022-10-31T18:19:00.763Z,7.60
2022-10-31T18:21:30.785Z,7.65
2022-10-31T18:24:00.592Z,7.65
2022-10-31T18:26:28.563Z,6.65
2022-10-31T18:28:55.900Z,7.60
2022-10-31T18:31:23.274Z,6.32
2022-10-31T18:33:55.234Z,6.97
2022-10-31T18:36:23.805Z,7.55
2022-10-31T18:38:51.068Z,6.85
2022-10-31T18:41:18.795Z,6.38
2022-10-31T18:43:46.171Z,8.07
2022-10-31T18:46:17.587Z,7.43
2022-10-31T18:48:46.416Z,8.70
2022-10-31T18:51:18.364Z,7.38
2022-10-31T18:53:56.423Z,8.02
2022-10-31T18:56:25.251Z,8.10
2022-10-31T18:58:53.063Z,8.80
2022-10-31T19:01:22.401Z,8.48
2022-10-31T19:03:56.241Z,8.82
2022-10-31T19:06:26.762Z,8.38
2022-10-31T19:11:34.925Z,9.70
2022-10-31T19:14:02.447Z,9.38
2022-10-31T19:16:30.288Z,9.48
2022-10-31T19:19:00.017Z,9.50
2022-10-31T19:21:27.905Z,9.27
2022-10-31T19:23:56.507Z,10.13
2022-10-31T19:26:26.472Z,8.88
2022-10-31T19:28:56.410Z,9.05
2022-10-31T19:31:23.965Z,9.10
2022-10-31T19:33:51.257Z,8.40
2022-10-31T19:36:20.850Z,10.30
2022-10-31T19:38:52.481Z,9.57
2022-10-31T19:41:28.283Z,9.40
2022-10-31T19:43:59.414Z,8.05
2022-10-31T19:46:51.783Z,8.70
2022-10-31T19:49:14.547Z,8.30
2022-10-31T19:51:43.302Z,8.88
2022-10-31T19:54:12.168Z,9.02
2022-10-31T19:56:39.438Z,9.57
2022-10-31T19:59:06.744Z,9.23
2022-10-31T20:01:34.085Z,9.48
2022-10-31T20:04:01.640Z,9.32
2022-10-31T20:06:41.413Z,9.27
2022-10-31T20:09:16.060Z,9.25
2022-10-31T20:11:46.361Z,9.65
2022-10-31T20:14:18.513Z,8.40
2022-10-31T20:16:46.694Z,9.25
2022-10-31T20:19:14.327Z,8.52
2022-10-31T20:21:41.962Z,8.95
2022-10-31T20:24:11.054Z,9.38
2022-10-31T20:26:41.009Z,8.75
2022-10-31T20:29:15.933Z,8.82
2022-10-31T20:31:45.658Z,9.15
2022-10-31T20:34:14.348Z,8.87
2022-10-31T20:36:41.885Z,8.68
2022-10-31T20:39:10.322Z,9.48
2022-10-31T20:41:39.443Z,9.05
2022-10-31T20:44:07.199Z,8.70
2022-10-31T20:46:34.575Z,8.88
2022-10-31T20:49:02.138Z,9.05
2022-10-31T20:51:31.645Z,8.00
2022-10-31T20:54:01.168Z,8.68
2022-10-31T20:56:29.915Z,8.20
2022-10-31T20:58:57.985Z,8.90
2022-10-31T21:01:33.504Z,8.02
2022-10-31T21:04:01.294Z,8.75
2022-10-31T21:06:30.349Z,8.63
2022-10-31T21:08:58.402Z,9.07
2022-10-31T21:11:28.587Z,9.05
2022-10-31T21:13:56.237Z,9.43
2022-10-31T21:16:35.830Z,8.90
2022-10-31T21:19:05.178Z,8.98
2022-10-31T21:21:36.808Z,8.77
2022-10-31T21:24:16.243Z,8.23
2022-10-31T21:26:50.002Z,9.48
2022-10-31T21:29:19.214Z,9.57
2022-10-31T21:31:47.844Z,9.30
2022-10-31T21:34:15.903Z,8.77
2022-10-31T21:36:43.208Z,9.45
2022-10-31T21:39:10.816Z,8.52
2022-10-31T21:41:38.118Z,9.10
2022-10-31T21:44:06.507Z,8.35
2022-10-31T21:46:34.543Z,10.25
2022-10-31T21:49:04.316Z,9.00
2022-10-31T21:51:36.063Z,9.00
2022-10-31T21:54:22.668Z,8.98
2022-10-31T21:56:51.057Z,9.25
2022-10-31T21:59:18.327Z,8.60
2022-10-31T22:01:45.704Z,9.35
2022-10-31T22:04:13.392Z,9.90
2022-10-31T22:06:40.664Z,9.15
2022-10-31T22:09:14.072Z,9.00
2022-10-31T22:11:43.322Z,9.38
2022-10-31T22:14:15.242Z,9.20
2022-10-31T22:16:43.537Z,9.48
2022-10-31T22:19:14.298Z,9.32
2022-10-31T22:21:48.739Z,9.18
2022-10-31T22:24:18.396Z,9.93
2022-10-31T22:26:46.149Z,9.57
2022-10-31T22:29:18.828Z,9.45
2022-10-31T22:31:53.546Z,9.98
2022-10-31T22:34:24.742Z,9.23
2022-10-31T22:36:53.794Z,9.50
2022-10-31T22:39:21.166Z,11.07
2022-10-31T22:41:48.425Z,9.50
2022-10-31T22:44:15.692Z,9.25
2022-10-31T22:46:42.955Z,10.32
2022-10-31T22:49:14.990Z,10.02
2022-10-31T22:51:43.909Z,9.63
2022-10-31T22:54:18.258Z,9.63
2022-10-31T22:56:46.190Z,9.18
2022-10-31T22:59:16.645Z,8.45
2022-10-31T23:01:45.812Z,8.90
2022-10-31T23:04:16.152Z,9.15
2022-10-31T23:09:16.891Z,9.48
2022-10-31T23:11:45.040Z,9.48
2022-10-31T23:14:20.743Z,9.32
2022-10-31T23:16:56.925Z,10.38
2022-10-31T23:19:30.472Z,10.07
2022-10-31T23:22:04.071Z,9.77
2022-10-31T23:24:46.185Z,10.55
2022-10-31T23:27:19.786Z,8.90
2022-10-31T23:29:58.704Z,8.93
2022-10-31T23:32:35.236Z,8.43
2022-10-31T23:35:10.166Z,8.75
2022-10-31T23:37:39.225Z,9.35
2022-10-31T23:40:08.746Z,9.00
2022-10-31T23:42:36.106Z,9.38
2022-10-31T23:45:03.714Z,9.50
2022-10-31T23:47:30.973Z,8.80
2022-10-31T23:49:58.225Z,9.52
2022-10-31T23:52:25.525Z,9.25
2022-10-31T23:54:52.880Z,9.50
2022-10-31T23:57:20.955Z,8.55
2022-10-31T23:59:48.201Z,8.63
